createdAt,value
2017-11-23T00:00:21.246Z,27.43
2017-11-23T00:02:47.681Z,28.10
2017-11-23T00:05:14.117Z,21.50
2017-11-23T00:07:40.550Z,24.70
2017-11-23T00:10:06.986Z,21.60
2017-11-23T00:12:34.137Z,33.50
2017-11-23T00:15:00.572Z,29.27
2017-11-23T00:17:27.006Z,30.47
2017-11-23T00:19:53.441Z,27.70
2017-11-23T00:22:19.874Z,32.87
2017-11-23T00:24:46.309Z,26.20
2017-11-23T00:27:12.749Z,32.17
2017-11-23T00:29:39.891Z,47.00
2017-11-23T00:32:06.332Z,39.83
2017-11-23T00:34:32.699Z,57.37
2017-11-23T00:36:59.069Z,49.10
2017-11-23T00:39:25.542Z,42.00
2017-11-23T00:41:52.078Z,38.43
2017-11-23T00:44:18.505Z,32.33
2017-11-23T00:46:45.557Z,31.77
2017-11-23T00:49:11.987Z,31.00
2017-11-23T00:51:38.433Z,27.77
2017-11-23T00:54:04.866Z,22.43
2017-11-23T00:56:31.290Z,26.40
2017-11-23T00:58:57.742Z,32.83
2017-11-23T01:01:24.264Z,24.50
2017-11-23T01:03:51.402Z,35.57
2017-11-23T01:06:17.853Z,34.87
2017-11-23T01:08:44.283Z,27.43
2017-11-23T01:11:10.717Z,27.73
2017-11-23T01:13:37.152Z,27.07
2017-11-23T01:16:03.596Z,35.77
2017-11-23T01:18:30.032Z,32.70
2017-11-23T01:20:57.178Z,31.37
2017-11-23T01:23:23.505Z,34.53
2017-11-23T01:25:50.033Z,32.93
2017-11-23T01:28:16.477Z,28.20
2017-11-23T01:30:42.848Z,34.10
2017-11-23T01:33:09.210Z,31.70
2017-11-23T01:35:35.579Z,35.07
2017-11-23T01:38:02.821Z,29.40
2017-11-23T01:40:29.273Z,32.97
2017-11-23T01:42:55.699Z,21.23
2017-11-23T01:45:22.235Z,21.40
2017-11-23T01:47:48.671Z,24.40
2017-11-23T01:50:15.114Z,19.97
2017-11-23T01:52:41.541Z,20.90
2017-11-23T01:55:08.698Z,21.53
2017-11-23T01:57:35.138Z,20.90
2017-11-23T02:00:01.570Z,23.37
2017-11-23T02:02:27.996Z,21.07
2017-11-23T02:04:54.434Z,22.17
2017-11-23T02:07:20.866Z,24.33
2017-11-23T02:09:47.309Z,17.17
2017-11-23T02:12:14.552Z,21.10
2017-11-23T02:14:40.988Z,18.70
2017-11-23T02:17:07.422Z,27.80
2017-11-23T02:19:33.857Z,20.40
2017-11-23T02:22:00.303Z,20.10
2017-11-23T02:24:26.726Z,23.23
2017-11-23T02:26:53.161Z,21.53
2017-11-23T02:29:20.317Z,20.33
2017-11-23T02:31:46.749Z,22.00
2017-11-23T02:34:13.182Z,28.10
2017-11-23T02:36:39.505Z,19.17
2017-11-23T02:39:05.949Z,18.73
2017-11-23T02:41:32.383Z,17.97
2017-11-23T02:43:58.820Z,21.77
2017-11-23T02:46:26.080Z,21.23
2017-11-23T02:48:52.508Z,20.93
2017-11-23T02:51:18.948Z,24.33
2017-11-23T02:53:45.383Z,24.60
2017-11-23T02:56:11.816Z,26.03
2017-11-23T02:58:38.254Z,22.13
2017-11-23T03:01:04.652Z,30.30
2017-11-23T03:03:31.729Z,29.90
2017-11-23T03:05:58.265Z,22.50
2017-11-23T03:08:24.701Z,20.77
2017-11-23T03:10:51.146Z,20.73
2017-11-23T03:13:17.469Z,21.60
2017-11-23T03:15:44.005Z,15.80
2017-11-23T03:18:10.441Z,16.73
2017-11-23T03:20:37.490Z,14.13
2017-11-23T03:23:04.026Z,14.00
2017-11-23T03:25:30.459Z,17.10
2017-11-23T03:27:56.827Z,18.20
2017-11-23T03:30:23.227Z,15.30
2017-11-23T03:32:49.669Z,15.67
2017-11-23T03:35:16.095Z,17.00
2017-11-23T03:37:43.335Z,15.90
2017-11-23T03:40:09.787Z,20.97
2017-11-23T03:42:36.218Z,18.77
2017-11-23T03:45:02.652Z,17.37
2017-11-23T03:47:29.087Z,21.30
2017-11-23T03:49:55.520Z,21.87
2017-11-23T03:52:21.966Z,24.53
2017-11-23T03:54:49.108Z,29.23
2017-11-23T03:57:15.531Z,23.00
2017-11-23T03:59:41.912Z,23.97
2017-11-23T04:02:08.309Z,23.80
2017-11-23T04:04:34.744Z,35.80
2017-11-23T04:07:01.178Z,37.40
2017-11-23T04:09:27.551Z,29.77
2017-11-23T04:11:54.749Z,33.73
2017-11-23T04:14:21.199Z,32.80
2017-11-23T04:16:47.633Z,33.60
2017-11-23T04:19:14.069Z,30.90
2017-11-23T04:21:40.503Z,28.23
2017-11-23T04:24:06.939Z,23.60
2017-11-23T04:26:33.372Z,29.77
2017-11-23T04:29:00.524Z,31.63
2017-11-23T04:31:26.958Z,27.73
2017-11-23T04:33:53.393Z,27.57
2017-11-23T04:36:19.829Z,25.87
2017-11-23T04:38:46.262Z,33.23
2017-11-23T04:41:12.699Z,26.47
2017-11-23T04:43:39.141Z,33.57
2017-11-23T04:46:06.293Z,31.70
2017-11-23T04:48:32.716Z,34.83
2017-11-23T04:50:59.161Z,42.20
2017-11-23T04:53:25.594Z,41.80
2017-11-23T04:55:52.021Z,38.43
2017-11-23T04:58:18.456Z,40.17
2017-11-23T05:00:44.835Z,36.60
2017-11-23T05:03:12.050Z,34.30
2017-11-23T05:05:38.485Z,34.30
2017-11-23T05:08:04.911Z,39.70
2017-11-23T05:10:31.346Z,35.80
2017-11-23T05:12:57.781Z,40.40
2017-11-23T05:15:24.215Z,38.77
2017-11-23T05:17:50.650Z,37.93
2017-11-23T05:20:17.781Z,45.10
2017-11-23T05:22:44.222Z,41.90
2017-11-23T05:25:10.665Z,42.07
2017-11-23T05:27:37.105Z,37.87
2017-11-23T05:30:03.548Z,34.50
2017-11-23T05:32:30.179Z,57.33
2017-11-23T05:34:56.613Z,66.83
2017-11-23T05:37:23.772Z,68.10
2017-11-23T05:39:50.208Z,59.70
2017-11-23T05:42:16.635Z,80.53
2017-11-23T05:44:43.069Z,57.67
2017-11-23T05:47:09.502Z,68.53
2017-11-23T05:49:35.939Z,67.40
2017-11-23T05:52:02.372Z,46.40
2017-11-23T05:54:29.626Z,57.27
2017-11-23T05:56:56.061Z,65.10
2017-11-23T05:59:22.764Z,60.43
2017-11-23T06:01:49.238Z,75.10
2017-11-23T06:04:15.680Z,63.60
2017-11-23T06:06:42.211Z,66.13
2017-11-23T06:09:08.953Z,57.07
2017-11-23T06:11:35.389Z,63.90
2017-11-23T06:14:01.822Z,47.70
2017-11-23T06:16:28.375Z,49.43
2017-11-23T06:18:54.801Z,48.30
2017-11-23T06:21:22.033Z,56.23
2017-11-23T06:23:48.485Z,58.07
2017-11-23T06:26:14.924Z,68.00
2017-11-23T06:28:42.476Z,264.20
2017-11-23T06:31:08.919Z,271.20
2017-11-23T06:33:35.347Z,158.83
2017-11-23T06:36:01.716Z,117.20
2017-11-23T06:38:28.249Z,148.10
2017-11-23T06:40:54.650Z,143.87
2017-11-23T06:43:21.093Z,97.33
2017-11-23T06:45:47.421Z,88.10
2017-11-23T06:48:14.371Z,88.63
2017-11-23T06:50:40.807Z,85.30
2017-11-23T06:53:07.231Z,57.10
2017-11-23T06:55:33.672Z,73.43
2017-11-23T06:58:00.109Z,52.67
2017-11-23T07:00:26.572Z,58.10
2017-11-23T07:02:52.955Z,56.10
2017-11-23T07:05:19.404Z,51.90
2017-11-23T07:07:45.839Z,43.27
2017-11-23T07:10:12.795Z,33.40
2017-11-23T07:12:39.220Z,55.43
2017-11-23T07:15:05.656Z,51.87
2017-11-23T07:17:32.995Z,64.13
2017-11-23T07:19:59.446Z,52.23
2017-11-23T07:22:26.085Z,53.40
2017-11-23T07:24:52.794Z,52.70
2017-11-23T07:27:19.672Z,57.87
2017-11-23T07:29:46.220Z,58.70
2017-11-23T07:32:12.643Z,62.93
2017-11-23T07:34:39.319Z,68.83
2017-11-23T07:37:05.892Z,49.23
2017-11-23T07:39:32.357Z,44.27
2017-11-23T07:41:58.800Z,63.70
2017-11-23T07:44:25.257Z,62.73
2017-11-23T07:46:51.662Z,61.87
2017-11-23T07:49:18.405Z,69.13
2017-11-23T07:51:44.809Z,78.63
2017-11-23T07:54:11.278Z,87.10
2017-11-23T07:56:37.707Z,84.87
2017-11-23T07:59:04.141Z,81.67
2017-11-23T08:01:30.853Z,84.50
2017-11-23T08:03:57.326Z,88.47
2017-11-23T08:06:24.161Z,80.30
2017-11-23T08:08:50.596Z,111.40
2017-11-23T08:11:17.142Z,105.27
2017-11-23T08:13:44.285Z,21.80
2017-11-23T08:16:10.876Z,44.77
2017-11-23T08:18:37.336Z,44.73
2017-11-23T08:21:04.202Z,19.87
2017-11-23T08:23:31.021Z,30.70
2017-11-23T08:25:57.464Z,28.10
2017-11-23T08:28:24.019Z,17.33
2017-11-23T08:30:50.564Z,15.13
2017-11-23T08:33:17.200Z,15.27
2017-11-23T08:35:43.903Z,20.20
2017-11-23T08:38:10.382Z,19.20
2017-11-23T08:40:36.853Z,21.03
2017-11-23T08:43:04.295Z,42.07
2017-11-23T08:45:30.807Z,16.30
2017-11-23T08:47:57.979Z,299.03
2017-11-23T08:50:25.610Z,10.07
2017-11-23T08:52:52.473Z,42.37
2017-11-23T08:55:19.249Z,116.90
2017-11-23T08:57:46.301Z,14.27
2017-11-23T09:00:13.001Z,17.47
2017-11-23T09:02:39.430Z,20.00
2017-11-23T09:05:06.069Z,12.10
2017-11-23T09:07:32.716Z,79.03
2017-11-23T09:10:00.172Z,30.27
2017-11-23T09:12:27.218Z,19.23
2017-11-23T09:14:53.835Z,20.53
2017-11-23T09:17:20.504Z,14.53
2017-11-23T09:19:47.481Z,75.60
2017-11-23T09:22:14.293Z,14.20
2017-11-23T09:24:41.037Z,89.47
2017-11-23T09:27:08.290Z,211.17
2017-11-23T09:29:34.930Z,14.60
2017-11-23T09:32:01.568Z,21.50
2017-11-23T09:34:29.180Z,27.97
2017-11-23T09:36:55.817Z,19.47
2017-11-23T09:39:22.517Z,15.00
2017-11-23T09:41:49.451Z,104.73
2017-11-23T09:44:15.997Z,38.33
2017-11-23T09:46:42.727Z,11.53
2017-11-23T09:49:09.372Z,17.60
2017-11-23T09:51:35.871Z,9.97
2017-11-23T09:54:02.339Z,20.30
2017-11-23T09:56:29.081Z,11.10
2017-11-23T09:58:55.524Z,13.20
2017-11-23T10:01:21.950Z,10.77
2017-11-23T10:03:48.860Z,13.43
2017-11-23T10:06:15.331Z,13.03
2017-11-23T10:08:41.875Z,13.37
2017-11-23T10:11:08.787Z,24.33
2017-11-23T10:13:35.249Z,12.30
2017-11-23T10:16:01.669Z,11.40
2017-11-23T10:18:28.537Z,15.93
2017-11-23T10:20:55.073Z,19.00
2017-11-23T10:23:21.519Z,14.27
2017-11-23T10:25:48.240Z,11.43
2017-11-23T10:28:14.676Z,25.30
2017-11-23T10:30:41.213Z,13.60
2017-11-23T10:33:07.861Z,22.33
2017-11-23T10:35:34.290Z,11.80
2017-11-23T10:38:00.791Z,12.23
2017-11-23T10:40:27.363Z,12.93
2017-11-23T10:42:53.908Z,11.10
2017-11-23T10:45:20.429Z,16.30
2017-11-23T10:47:47.385Z,17.17
2017-11-23T10:50:13.927Z,14.67
2017-11-23T10:52:40.355Z,18.37
2017-11-23T10:55:07.198Z,23.10
2017-11-23T10:57:34.556Z,11.53
2017-11-23T11:00:01.101Z,15.40
2017-11-23T11:02:27.733Z,17.13
2017-11-23T11:04:54.790Z,22.13
2017-11-23T11:07:21.624Z,13.60
2017-11-23T11:09:48.575Z,21.33
2017-11-23T11:12:15.116Z,12.60
2017-11-23T11:14:41.652Z,13.60
2017-11-23T11:17:08.732Z,16.90
2017-11-23T11:19:35.344Z,39.13
2017-11-23T11:22:01.876Z,22.03
2017-11-23T11:24:28.722Z,16.40
2017-11-23T11:26:57.367Z,18.73
2017-11-23T11:29:26.468Z,15.33
2017-11-23T11:31:53.108Z,16.50
2017-11-23T11:34:19.470Z,14.90
2017-11-23T11:36:46.008Z,14.60
2017-11-23T11:39:12.935Z,12.70
2017-11-23T11:41:39.389Z,14.80
2017-11-23T11:44:05.823Z,15.63
2017-11-23T11:46:32.462Z,12.27
2017-11-23T11:48:59.764Z,16.03
2017-11-23T11:51:26.265Z,17.40
2017-11-23T11:53:53.200Z,15.33
2017-11-23T11:56:19.944Z,16.03
2017-11-23T11:58:46.692Z,14.33
2017-11-23T12:01:13.225Z,17.37
2017-11-23T12:03:40.585Z,24.30
2017-11-23T12:06:07.113Z,14.63
2017-11-23T12:08:33.652Z,13.00
2017-11-23T12:11:00.291Z,15.20
2017-11-23T12:13:26.929Z,14.03
2017-11-23T12:15:53.476Z,15.00
2017-11-23T12:18:20.210Z,14.37
2017-11-23T12:20:46.818Z,15.10
2017-11-23T12:23:13.384Z,16.43
2017-11-23T12:25:40.442Z,14.03
2017-11-23T12:28:07.075Z,13.37
2017-11-23T12:30:33.719Z,19.57
2017-11-23T12:33:00.456Z,15.90
2017-11-23T12:35:27.044Z,16.87
2017-11-23T12:37:53.482Z,26.73
2017-11-23T12:40:20.477Z,18.53
2017-11-23T12:42:47.121Z,17.23
2017-11-23T12:45:13.663Z,15.20
2017-11-23T12:47:40.840Z,13.70
2017-11-23T12:50:07.449Z,17.40
2017-11-23T12:52:33.864Z,17.17
2017-11-23T12:55:00.620Z,15.70
2017-11-23T12:57:27.054Z,16.30
2017-11-23T12:59:53.490Z,14.90
2017-11-23T13:02:19.933Z,14.03
2017-11-23T13:04:46.358Z,16.43
2017-11-23T13:07:13.203Z,12.97
2017-11-23T13:09:39.747Z,15.00
2017-11-23T13:12:06.695Z,19.07
2017-11-23T13:14:33.137Z,16.67
2017-11-23T13:16:59.965Z,18.93
2017-11-23T13:19:26.505Z,24.57
2017-11-23T13:21:52.938Z,14.67
2017-11-23T13:24:19.985Z,14.13
2017-11-23T13:26:46.736Z,18.57
2017-11-23T13:29:13.330Z,19.53
2017-11-23T13:36:43.511Z,29.30
2017-11-23T13:46:45.105Z,22.03
2017-11-23T13:49:11.675Z,17.23
2017-11-23T13:51:38.212Z,17.70
2017-11-23T13:54:04.684Z,16.50
2017-11-23T13:56:31.191Z,21.53
2017-11-23T13:58:57.720Z,22.07
2017-11-23T14:01:24.271Z,22.07
2017-11-23T14:03:51.376Z,21.53
2017-11-23T14:06:17.846Z,18.97
2017-11-23T14:08:44.175Z,20.30
2017-11-23T14:11:10.541Z,29.50
2017-11-23T14:13:37.054Z,28.37
2017-11-23T14:16:03.426Z,26.40
2017-11-23T14:18:30.017Z,30.20
2017-11-23T14:20:56.562Z,38.93
2017-11-23T14:23:22.988Z,28.63
2017-11-23T14:25:49.640Z,28.90
2017-11-23T14:28:16.882Z,38.00
2017-11-23T14:30:43.425Z,24.53
2017-11-23T14:33:09.997Z,34.07
2017-11-23T14:35:36.554Z,35.13
2017-11-23T14:38:03.030Z,34.50
2017-11-23T14:40:29.398Z,35.30
2017-11-23T14:42:55.871Z,31.13
2017-11-23T14:45:22.615Z,48.17
2017-11-23T14:47:49.442Z,35.47
2017-11-23T14:50:16.598Z,35.77
2017-11-23T14:52:43.295Z,41.57
2017-11-23T14:55:09.923Z,50.37
2017-11-23T15:02:39.228Z,40.90
2017-11-23T15:05:05.601Z,43.37
2017-11-23T15:07:32.045Z,40.80
2017-11-23T15:09:58.582Z,46.47
2017-11-23T15:12:25.008Z,53.37
2017-11-23T15:14:51.373Z,56.70
2017-11-23T15:17:17.714Z,44.10
2017-11-23T15:19:44.209Z,44.23
2017-11-23T15:22:10.651Z,52.70
2017-11-23T15:24:37.180Z,74.57
2017-11-23T15:27:03.581Z,70.90
2017-11-23T15:29:30.153Z,51.03
2017-11-23T15:31:56.588Z,55.93
2017-11-23T15:34:23.030Z,54.27
2017-11-23T15:36:49.434Z,62.23
2017-11-23T15:39:15.821Z,48.50
2017-11-23T15:41:42.412Z,46.00
2017-11-23T15:44:08.992Z,49.13
2017-11-23T15:46:35.593Z,41.93
2017-11-23T15:49:02.048Z,49.93
2017-11-23T15:51:28.484Z,55.60
2017-11-23T15:53:55.021Z,59.17
2017-11-23T15:56:21.447Z,43.03
2017-11-23T15:58:48.085Z,39.47
2017-11-23T16:01:16.132Z,50.00
2017-11-23T16:03:42.534Z,54.13
2017-11-23T16:06:09.002Z,56.90
2017-11-23T16:08:35.444Z,53.80
2017-11-23T16:23:38.620Z,115.13
2017-11-23T16:26:05.055Z,95.83
2017-11-23T16:28:31.490Z,107.33
2017-11-23T16:30:57.931Z,113.70
2017-11-23T16:33:24.492Z,81.30
2017-11-23T16:35:54.599Z,81.80
2017-11-23T16:38:21.025Z,92.20
2017-11-23T16:40:47.461Z,101.73
2017-11-23T16:43:13.895Z,135.90
2017-11-23T16:50:21.517Z,94.10
2017-11-23T16:55:43.776Z,103.97
2017-11-23T16:58:10.234Z,97.47
2017-11-23T17:00:36.647Z,109.07
2017-11-23T17:03:03.111Z,96.53
2017-11-23T17:05:29.626Z,91.20
2017-11-23T17:07:56.056Z,109.90
2017-11-23T17:16:05.836Z,161.43
2017-11-23T17:21:10.486Z,163.60
2017-11-23T17:23:36.928Z,148.07
2017-11-23T17:26:03.362Z,197.60
2017-11-23T17:31:06.156Z,105.33
2017-11-23T17:33:32.692Z,108.23
2017-11-23T17:38:45.940Z,110.63
2017-11-23T17:46:02.071Z,96.20
2017-11-23T17:54:56.485Z,81.33
2017-11-23T17:57:22.935Z,92.20
2017-11-23T18:01:27.774Z,84.73
2017-11-23T18:03:54.236Z,87.53
2017-11-23T18:06:20.652Z,93.80
2017-11-23T18:08:47.087Z,118.77
2017-11-23T18:11:13.420Z,99.30
2017-11-23T18:13:39.752Z,98.27
2017-11-23T18:22:21.387Z,88.20
2017-11-23T18:24:47.933Z,89.23
2017-11-23T18:27:14.359Z,94.30
2017-11-23T18:36:37.568Z,94.15
2017-11-23T19:04:18.537Z,126.20
2017-11-23T19:06:44.993Z,125.20
2017-11-23T19:11:52.177Z,119.63
2017-11-23T19:14:18.569Z,126.87
2017-11-23T19:21:51.442Z,130.60
2017-11-23T19:24:17.920Z,132.97
2017-11-23T19:26:44.370Z,121.90
2017-11-23T19:34:46.101Z,148.80
2017-11-23T19:37:12.530Z,146.37
2017-11-23T19:39:38.961Z,137.43
2017-11-23T19:42:05.396Z,131.30
2017-11-23T19:44:31.765Z,126.23
2017-11-23T19:53:45.608Z,115.60
2017-11-23T19:56:12.060Z,109.00
2017-11-23T19:58:38.498Z,86.00
2017-11-23T20:01:04.855Z,132.73
2017-11-23T20:07:59.652Z,109.70
2017-11-23T20:10:26.088Z,116.03
2017-11-23T20:18:09.770Z,88.00
2017-11-23T20:20:36.196Z,85.20
2017-11-23T20:28:53.877Z,90.07
2017-11-23T20:37:26.709Z,83.37
2017-11-23T20:42:31.763Z,90.83
2017-11-23T20:44:58.215Z,89.47
2017-11-23T20:53:04.767Z,92.33
2017-11-23T21:01:15.488Z,79.43
2017-11-23T21:06:29.893Z,81.90
2017-11-23T21:08:56.328Z,71.47
2017-11-23T21:11:22.868Z,81.40
2017-11-23T21:13:52.782Z,83.53
2017-11-23T21:16:19.216Z,82.40
2017-11-23T21:18:45.572Z,83.90
2017-11-23T21:21:11.999Z,71.73
2017-11-23T21:23:38.519Z,74.80
2017-11-23T21:26:04.947Z,67.53
2017-11-23T21:28:31.380Z,70.77
2017-11-23T21:30:57.711Z,73.07
2017-11-23T21:33:24.147Z,73.50
2017-11-23T21:35:50.613Z,80.40
2017-11-23T21:38:17.017Z,87.43
2017-11-23T21:40:43.349Z,83.40
2017-11-23T21:43:09.794Z,83.03
2017-11-23T21:45:36.186Z,85.13
2017-11-23T21:48:02.670Z,81.73
2017-11-23T21:50:29.839Z,88.80
2017-11-23T21:52:56.239Z,91.00
2017-11-23T21:55:22.682Z,83.60
2017-11-23T21:57:49.108Z,91.43
2017-11-23T22:00:15.546Z,83.23
2017-11-23T22:02:41.947Z,80.63
2017-11-23T22:05:08.381Z,93.03
2017-11-23T22:07:35.568Z,84.17
2017-11-23T22:10:01.898Z,76.43
2017-11-23T22:12:28.406Z,108.60
2017-11-23T22:14:54.876Z,74.93
2017-11-23T22:17:21.230Z,65.33
2017-11-23T22:19:47.633Z,68.20
2017-11-23T22:22:14.068Z,77.33
2017-11-23T22:24:41.220Z,75.73
2017-11-23T22:27:07.654Z,66.40
2017-11-23T22:29:34.089Z,69.40
2017-11-23T22:32:00.527Z,65.80
2017-11-23T22:34:26.968Z,64.97
2017-11-23T22:36:53.393Z,69.30
2017-11-23T22:39:19.828Z,69.63
2017-11-23T22:41:46.980Z,75.30
2017-11-23T22:44:13.423Z,83.73
2017-11-23T22:46:39.849Z,64.50
2017-11-23T22:49:06.289Z,80.87
2017-11-23T22:51:32.718Z,83.20
2017-11-23T22:53:59.161Z,80.77
2017-11-23T22:56:25.595Z,70.80
2017-11-23T22:58:52.849Z,73.37
2017-11-23T23:01:19.243Z,70.10
2017-11-23T23:03:45.718Z,70.20
2017-11-23T23:06:12.154Z,80.77
2017-11-23T23:13:02.669Z,72.00
2017-11-23T23:15:29.114Z,74.47
2017-11-23T23:17:55.544Z,76.53
2017-11-23T23:20:21.980Z,69.83
2017-11-23T23:22:48.422Z,68.87
2017-11-23T23:25:14.879Z,73.70
2017-11-23T23:27:41.282Z,66.90
2017-11-23T23:30:07.805Z,61.27
2017-11-23T23:32:34.257Z,70.27
2017-11-23T23:35:00.700Z,71.17
2017-11-23T23:37:27.115Z,67.30
2017-11-23T23:39:53.532Z,70.17
2017-11-23T23:47:33.045Z,70.97
2017-11-23T23:49:59.470Z,75.73
2017-11-23T23:52:25.904Z,68.07
2017-11-23T23:54:52.358Z,68.50
2017-11-23T23:57:18.773Z,63.20
2017-11-23T23:59:45.276Z,66.50
